createdAt,value
2023-03-03T00:02:02.277Z,7.00
2023-03-03T00:04:32.339Z,7.00
2023-03-03T00:07:00.905Z,6.90
2023-03-03T00:09:29.436Z,6.90
2023-03-03T00:11:59.882Z,6.90
2023-03-03T00:14:32.775Z,6.80
2023-03-03T00:17:13.605Z,6.80
2023-03-03T00:19:47.367Z,6.80
2023-03-03T00:22:24.141Z,6.80
2023-03-03T00:24:52.505Z,6.70
2023-03-03T00:27:29.160Z,6.70
2023-03-03T00:29:59.146Z,6.70
2023-03-03T00:32:29.736Z,6.70
2023-03-03T00:35:21.363Z,6.70
2023-03-03T00:37:50.802Z,6.60
2023-03-03T00:40:25.463Z,6.60
2023-03-03T00:42:56.045Z,6.60
2023-03-03T00:45:41.241Z,6.60
2023-03-03T00:48:28.122Z,6.50
2023-03-03T00:50:59.567Z,6.50
2023-03-03T00:53:29.661Z,6.50
2023-03-03T00:55:58.832Z,6.40
2023-03-03T00:58:27.965Z,6.40
2023-03-03T01:00:58.936Z,6.30
2023-03-03T01:03:28.763Z,6.30
2023-03-03T01:05:58.690Z,6.30
2023-03-03T01:08:26.941Z,6.30
2023-03-03T01:10:58.424Z,6.20
2023-03-03T01:13:30.405Z,6.20
2023-03-03T01:15:59.739Z,6.20
2023-03-03T01:18:28.467Z,6.20
2023-03-03T01:20:57.967Z,6.20
2023-03-03T01:23:26.226Z,6.10
2023-03-03T01:25:54.307Z,6.10
2023-03-03T01:28:23.142Z,6.10
2023-03-03T01:30:51.933Z,6.10
2023-03-03T01:33:20.763Z,6.00
2023-03-03T01:35:49.898Z,6.00
2023-03-03T01:38:19.876Z,6.00
2023-03-03T01:40:54.421Z,6.00
2023-03-03T01:43:23.028Z,5.90
2023-03-03T01:46:32.139Z,5.90
2023-03-03T01:49:04.010Z,5.80
2023-03-03T01:51:35.860Z,5.80
2023-03-03T01:54:10.867Z,5.70
2023-03-03T01:56:39.530Z,5.70
2023-03-03T01:59:13.319Z,5.70
2023-03-03T02:01:43.825Z,5.70
2023-03-03T02:04:11.952Z,5.70
2023-03-03T02:06:43.415Z,5.60
2023-03-03T02:09:18.983Z,5.60
2023-03-03T02:11:51.991Z,5.60
2023-03-03T02:14:20.149Z,5.60
2023-03-03T02:16:50.754Z,5.60
2023-03-03T02:19:25.656Z,5.60
2023-03-03T02:21:54.470Z,7.10
2023-03-03T02:24:30.364Z,5.50
2023-03-03T02:27:00.677Z,5.50
2023-03-03T02:29:29.162Z,5.50
2023-03-03T02:31:57.284Z,5.50
2023-03-03T02:34:26.093Z,5.40
2023-03-03T02:36:54.199Z,5.40
2023-03-03T02:39:24.402Z,5.40
2023-03-03T02:41:55.990Z,4.20
2023-03-03T02:44:28.597Z,5.40
2023-03-03T02:46:57.277Z,5.30
2023-03-03T02:49:28.026Z,5.30
2023-03-03T02:51:56.764Z,5.30
2023-03-03T02:54:27.022Z,5.30
2023-03-03T02:56:55.181Z,5.20
2023-03-03T02:59:23.269Z,5.20
2023-03-03T03:01:53.249Z,5.20
2023-03-03T03:04:23.442Z,5.20
2023-03-03T03:06:52.305Z,5.20
2023-03-03T03:09:22.807Z,5.20
2023-03-03T03:11:50.976Z,5.10
2023-03-03T03:14:19.541Z,5.10
2023-03-03T03:16:47.720Z,5.10
2023-03-03T03:19:17.768Z,5.10
2023-03-03T03:21:45.870Z,5.00
2023-03-03T03:24:14.448Z,5.00
2023-03-03T03:26:42.555Z,5.00
2023-03-03T03:29:11.131Z,5.00
2023-03-03T03:31:39.782Z,5.00
2023-03-03T03:34:08.343Z,5.00
2023-03-03T03:36:38.631Z,4.90
2023-03-03T03:39:06.808Z,4.90
2023-03-03T03:41:35.385Z,4.90
2023-03-03T03:44:03.444Z,4.90
2023-03-03T03:46:32.178Z,4.80
2023-03-03T03:49:00.760Z,4.80
2023-03-03T03:51:29.331Z,4.80
2023-03-03T03:53:58.795Z,4.80
2023-03-03T03:56:27.344Z,4.80
2023-03-03T03:58:55.437Z,4.70
2023-03-03T04:01:23.984Z,4.70
2023-03-03T04:03:52.045Z,4.70
2023-03-03T04:06:21.035Z,4.70
2023-03-03T04:08:49.230Z,4.70
2023-03-03T04:11:19.227Z,4.70
2023-03-03T04:13:47.280Z,4.70
2023-03-03T04:16:15.451Z,4.70
2023-03-03T04:18:46.493Z,4.60
2023-03-03T04:21:16.116Z,4.60
2023-03-03T04:23:45.141Z,4.60
2023-03-03T04:26:13.251Z,4.60
2023-03-03T04:28:42.773Z,4.60
2023-03-03T04:31:11.352Z,4.50
2023-03-03T04:33:39.914Z,4.60
2023-03-03T04:36:08.234Z,4.60
2023-03-03T04:38:37.105Z,4.50
2023-03-03T04:41:05.829Z,4.50
2023-03-03T04:43:33.959Z,4.50
2023-03-03T04:46:04.017Z,4.50
2023-03-03T04:48:32.605Z,4.50
2023-03-03T04:51:00.700Z,3.70
2023-03-03T04:53:29.328Z,4.50
2023-03-03T04:55:57.907Z,4.40
2023-03-03T04:58:26.525Z,4.40
2023-03-03T05:00:56.786Z,4.40
2023-03-03T05:03:27.409Z,4.40
2023-03-03T05:05:55.777Z,4.40
2023-03-03T05:08:24.442Z,4.30
2023-03-03T05:10:53.990Z,4.40
2023-03-03T05:13:22.577Z,4.40
2023-03-03T05:15:52.115Z,4.40
2023-03-03T05:18:21.442Z,4.30
2023-03-03T05:20:52.036Z,4.30
2023-03-03T05:23:20.735Z,4.30
2023-03-03T05:25:49.707Z,4.30
2023-03-03T05:28:19.214Z,4.20
2023-03-03T05:30:47.797Z,4.20
2023-03-03T05:33:17.925Z,4.20
2023-03-03T05:35:46.909Z,4.20
2023-03-03T05:38:16.328Z,4.20
2023-03-03T05:40:44.976Z,4.10
2023-03-03T05:43:13.532Z,4.10
2023-03-03T05:45:41.788Z,4.10
2023-03-03T05:48:10.715Z,4.10
2023-03-03T05:50:39.529Z,4.10
2023-03-03T05:53:08.107Z,4.10
2023-03-03T05:55:38.151Z,4.10
2023-03-03T05:58:06.198Z,4.10
2023-03-03T06:04:22.538Z,4.00
2023-03-03T06:06:50.945Z,4.00
2023-03-03T06:09:21.008Z,4.00
2023-03-03T06:11:52.876Z,5.30
2023-03-03T06:14:21.614Z,3.90
2023-03-03T06:16:50.080Z,3.90
2023-03-03T06:19:18.322Z,3.90
2023-03-03T06:21:46.498Z,3.90
2023-03-03T06:24:15.136Z,3.90
2023-03-03T06:26:43.272Z,3.90
2023-03-03T06:29:15.293Z,3.90
2023-03-03T06:31:44.410Z,3.90
2023-03-03T06:34:12.625Z,3.90
2023-03-03T06:36:40.966Z,3.90
2023-03-03T06:39:09.409Z,3.90
2023-03-03T06:41:37.625Z,3.90
2023-03-03T06:44:06.404Z,3.90
2023-03-03T06:46:35.951Z,3.90
2023-03-03T06:49:04.779Z,3.90
2023-03-03T06:51:35.191Z,3.90
2023-03-03T06:54:08.195Z,3.90
2023-03-03T06:56:38.180Z,3.90
2023-03-03T06:59:12.859Z,3.90
2023-03-03T07:01:43.983Z,3.90
2023-03-03T07:04:18.017Z,3.90
2023-03-03T07:06:46.326Z,4.00
2023-03-03T07:09:24.120Z,4.00
2023-03-03T07:11:52.600Z,4.00
2023-03-03T07:14:21.953Z,4.00
2023-03-03T07:16:57.780Z,4.00
2023-03-03T07:19:34.651Z,4.00
2023-03-03T07:22:15.571Z,4.00
2023-03-03T07:24:46.070Z,4.10
2023-03-03T07:27:19.067Z,4.10
2023-03-03T07:29:49.402Z,4.20
2023-03-03T07:32:28.158Z,4.20
2023-03-03T07:34:57.770Z,4.20
2023-03-03T07:37:32.421Z,4.20
2023-03-03T07:40:01.812Z,4.30
2023-03-03T07:42:40.500Z,4.30
2023-03-03T07:45:27.266Z,4.30
2023-03-03T07:48:10.420Z,4.40
2023-03-03T07:50:38.487Z,4.40
2023-03-03T07:53:16.060Z,4.40
2023-03-03T07:55:46.307Z,4.50
2023-03-03T07:58:23.708Z,4.50
2023-03-03T08:01:21.989Z,4.50
2023-03-03T08:03:52.581Z,4.50
2023-03-03T08:06:42.748Z,4.50
2023-03-03T08:09:39.605Z,4.50
2023-03-03T08:12:42.338Z,4.60
2023-03-03T08:15:21.022Z,4.60
2023-03-03T08:17:50.159Z,4.60
2023-03-03T08:20:47.845Z,4.60
2023-03-03T08:23:17.895Z,4.70
2023-03-03T08:25:47.092Z,4.70
2023-03-03T08:28:16.206Z,4.70
2023-03-03T08:30:45.999Z,4.80
2023-03-03T08:33:15.150Z,4.80
2023-03-03T08:35:43.724Z,4.90
2023-03-03T08:38:14.842Z,4.90
2023-03-03T08:40:44.041Z,5.00
2023-03-03T08:43:15.071Z,5.00
2023-03-03T08:45:45.246Z,5.10
2023-03-03T08:48:14.212Z,5.20
2023-03-03T08:50:43.382Z,5.30
2023-03-03T08:53:13.398Z,5.30
2023-03-03T08:55:42.496Z,5.40
2023-03-03T08:58:10.663Z,5.50
2023-03-03T09:00:39.938Z,5.60
2023-03-03T09:03:08.349Z,5.70
2023-03-03T09:05:38.533Z,5.70
2023-03-03T09:08:07.364Z,5.80
2023-03-03T09:10:37.287Z,5.80
2023-03-03T09:13:14.093Z,5.90
2023-03-03T09:15:43.319Z,6.00
2023-03-03T09:18:20.110Z,6.00
2023-03-03T09:20:50.602Z,6.10
2023-03-03T09:23:31.135Z,6.10
2023-03-03T09:26:19.062Z,6.20
2023-03-03T09:28:47.613Z,6.20
2023-03-03T09:31:26.372Z,6.30
2023-03-03T09:33:58.281Z,6.30
2023-03-03T09:36:29.444Z,6.40
2023-03-03T09:38:59.188Z,6.40
2023-03-03T09:42:16.761Z,6.50
2023-03-03T09:45:28.241Z,6.50
2023-03-03T09:48:21.474Z,6.60
2023-03-03T09:51:00.668Z,6.60
2023-03-03T09:53:53.124Z,6.70
2023-03-03T09:56:30.027Z,6.80
2023-03-03T09:59:17.498Z,6.90
2023-03-03T10:01:56.632Z,6.90
2023-03-03T10:04:50.103Z,7.00
2023-03-03T10:07:29.316Z,7.00
2023-03-03T10:10:12.250Z,7.10
2023-03-03T10:12:50.623Z,7.20
2023-03-03T10:15:29.212Z,7.20
2023-03-03T10:18:04.886Z,7.30
2023-03-03T10:20:51.148Z,7.40
2023-03-03T10:23:25.446Z,7.50
2023-03-03T10:26:08.884Z,7.50
2023-03-03T10:29:08.588Z,7.60
2023-03-03T10:31:56.459Z,7.70
2023-03-03T10:34:50.024Z,7.80
2023-03-03T10:37:25.978Z,7.90
2023-03-03T10:40:11.315Z,8.00
2023-03-03T10:42:50.994Z,8.00
2023-03-03T10:45:41.585Z,8.10
2023-03-03T10:48:31.516Z,8.30
2023-03-03T10:51:08.853Z,8.30
2023-03-03T10:53:49.149Z,8.40
2023-03-03T10:56:32.098Z,8.60
2023-03-03T10:59:23.539Z,8.60
2023-03-03T11:01:58.632Z,8.80
2023-03-03T11:04:43.576Z,8.90
2023-03-03T11:07:18.636Z,9.00
2023-03-03T11:09:58.536Z,9.10
2023-03-03T11:12:39.606Z,9.30
2023-03-03T11:15:24.219Z,9.40
2023-03-03T11:18:09.706Z,9.50
2023-03-03T11:20:44.234Z,9.60
2023-03-03T11:23:40.172Z,9.80
2023-03-03T11:26:13.167Z,9.90
2023-03-03T11:28:56.194Z,10.00
2023-03-03T11:31:32.235Z,10.20
2023-03-03T11:34:09.447Z,10.30
2023-03-03T11:36:44.593Z,10.40
2023-03-03T11:39:17.274Z,10.50
2023-03-03T11:42:01.011Z,10.60
2023-03-03T11:44:33.496Z,10.70
2023-03-03T11:47:07.622Z,10.90
2023-03-03T11:49:41.242Z,11.00
2023-03-03T11:52:25.908Z,11.10
2023-03-03T11:54:58.341Z,11.20
2023-03-03T11:57:34.311Z,11.40
2023-03-03T12:00:12.927Z,11.50
2023-03-03T12:03:11.023Z,11.60
2023-03-03T12:06:01.900Z,11.80
2023-03-03T12:08:45.625Z,11.90
2023-03-03T12:11:24.356Z,12.10
2023-03-03T12:13:59.377Z,12.20
2023-03-03T12:16:45.166Z,12.30
2023-03-03T12:19:32.736Z,12.50
2023-03-03T12:22:13.210Z,12.60
2023-03-03T12:24:54.561Z,12.70
2023-03-03T12:27:30.426Z,12.90
2023-03-03T12:30:13.778Z,13.10
2023-03-03T12:32:56.754Z,13.20
2023-03-03T12:35:32.796Z,13.30
2023-03-03T12:38:08.325Z,13.50
2023-03-03T12:40:45.814Z,13.60
2023-03-03T12:43:22.960Z,13.70
2023-03-03T12:46:02.119Z,13.90
2023-03-03T12:48:39.988Z,14.00
2023-03-03T12:51:17.907Z,14.20
2023-03-03T12:54:19.128Z,14.30
2023-03-03T12:56:54.237Z,14.50
2023-03-03T12:59:29.835Z,14.60
2023-03-03T13:02:17.464Z,14.70
2023-03-03T13:04:54.230Z,14.90
2023-03-03T13:07:29.265Z,15.00
2023-03-03T13:10:12.561Z,15.20
2023-03-03T13:12:47.126Z,15.30
2023-03-03T13:15:24.831Z,15.40
2023-03-03T13:18:17.526Z,15.60
2023-03-03T13:20:52.686Z,15.70
2023-03-03T13:23:33.603Z,15.90
2023-03-03T13:26:09.377Z,16.00
2023-03-03T13:28:43.942Z,16.10
2023-03-03T13:31:21.411Z,16.20
2023-03-03T13:33:55.308Z,16.40
2023-03-03T13:36:32.025Z,16.50
2023-03-03T13:39:05.882Z,16.60
2023-03-03T13:41:42.724Z,16.70
2023-03-03T13:44:16.508Z,16.90
2023-03-03T13:46:53.198Z,17.00
2023-03-03T13:49:40.042Z,17.10
2023-03-03T13:52:11.899Z,17.20
2023-03-03T13:55:11.538Z,17.40
2023-03-03T13:57:56.579Z,17.40
2023-03-03T14:00:37.492Z,17.60
2023-03-03T14:03:24.604Z,17.70
2023-03-03T14:05:55.421Z,17.80
2023-03-03T14:08:39.862Z,17.90
2023-03-03T14:11:13.323Z,18.00
2023-03-03T14:13:51.242Z,18.20
2023-03-03T14:16:32.010Z,18.30
2023-03-03T14:19:07.429Z,18.40
2023-03-03T14:21:41.947Z,18.50
2023-03-03T14:24:18.740Z,18.60
2023-03-03T14:26:49.712Z,18.70
2023-03-03T14:29:30.391Z,18.80
2023-03-03T14:32:03.105Z,19.00
2023-03-03T14:34:39.952Z,19.10
2023-03-03T14:37:24.473Z,19.10
2023-03-03T14:40:02.916Z,19.20
2023-03-03T14:42:34.775Z,19.30
2023-03-03T14:45:28.585Z,19.40
2023-03-03T14:48:00.669Z,19.40
2023-03-03T14:50:38.008Z,19.50
2023-03-03T14:53:16.712Z,19.60
2023-03-03T14:55:47.010Z,19.60
2023-03-03T14:58:40.370Z,19.60
2023-03-03T15:01:14.037Z,19.70
2023-03-03T15:03:49.766Z,19.80
2023-03-03T15:06:34.481Z,19.80
2023-03-03T15:09:36.127Z,19.90
2023-03-03T15:12:21.912Z,19.90
2023-03-03T15:14:51.880Z,19.90
2023-03-03T15:17:30.535Z,19.90
2023-03-03T15:20:11.745Z,20.00
2023-03-03T15:22:50.609Z,20.00
2023-03-03T15:25:41.938Z,20.00
2023-03-03T15:28:34.372Z,20.10
2023-03-03T15:31:09.361Z,20.10
2023-03-03T15:33:45.405Z,20.10
2023-03-03T15:36:23.759Z,20.10
2023-03-03T15:39:00.745Z,20.10
2023-03-03T15:41:41.699Z,20.10
2023-03-03T15:44:22.633Z,20.10
2023-03-03T15:47:06.128Z,20.00
2023-03-03T15:50:07.833Z,19.90
2023-03-03T15:52:49.851Z,19.70
2023-03-03T15:55:35.611Z,19.50
2023-03-03T15:58:36.952Z,19.30
2023-03-03T16:01:14.800Z,19.00
2023-03-03T16:03:48.504Z,18.60
2023-03-03T16:06:20.125Z,18.30
2023-03-03T16:08:58.535Z,18.00
2023-03-03T16:11:36.600Z,17.70
2023-03-03T16:14:30.205Z,17.40
2023-03-03T16:17:08.218Z,17.10
2023-03-03T16:19:45.260Z,16.90
2023-03-03T16:22:32.064Z,16.60
2023-03-03T16:25:20.094Z,16.40
2023-03-03T16:27:53.584Z,16.10
2023-03-03T16:30:31.098Z,15.90
2023-03-03T16:33:12.732Z,15.60
2023-03-03T16:35:47.050Z,15.40
2023-03-03T16:38:22.236Z,15.20
2023-03-03T16:40:55.837Z,15.00
2023-03-03T16:43:31.549Z,14.80
2023-03-03T16:46:04.383Z,14.60
2023-03-03T16:48:43.984Z,14.40
2023-03-03T16:51:22.623Z,14.30
2023-03-03T16:53:58.498Z,14.10
2023-03-03T16:56:35.083Z,13.90
2023-03-03T16:59:18.680Z,13.70
2023-03-03T17:01:57.994Z,13.50
2023-03-03T17:04:41.142Z,13.40
2023-03-03T17:07:21.674Z,13.20
2023-03-03T17:10:05.373Z,13.10
2023-03-03T17:12:54.361Z,12.90
2023-03-03T17:15:39.838Z,12.80
2023-03-03T17:18:14.983Z,12.60
2023-03-03T17:20:49.604Z,12.50
2023-03-03T17:23:44.328Z,12.30
2023-03-03T17:26:29.654Z,12.20
2023-03-03T17:29:12.967Z,12.10
2023-03-03T17:31:51.799Z,11.90
2023-03-03T17:34:34.155Z,11.80
2023-03-03T17:37:13.981Z,11.70
2023-03-03T17:40:12.020Z,11.60
2023-03-03T17:42:49.404Z,11.50
2023-03-03T17:45:21.927Z,11.40
2023-03-03T17:48:09.594Z,11.30
2023-03-03T17:50:54.207Z,11.20
2023-03-03T17:53:50.229Z,11.10
2023-03-03T17:56:23.244Z,11.00
2023-03-03T17:59:17.658Z,10.90
2023-03-03T18:02:16.423Z,10.90
2023-03-03T18:05:09.766Z,10.80
2023-03-03T18:07:50.045Z,10.70
2023-03-03T18:10:44.677Z,10.60
2023-03-03T18:13:35.125Z,10.60
2023-03-03T18:16:13.928Z,10.50
2023-03-03T18:19:10.828Z,10.40
2023-03-03T18:21:45.177Z,10.40
2023-03-03T18:24:28.790Z,10.30
2023-03-03T18:26:57.636Z,10.20
2023-03-03T18:29:28.486Z,10.10
2023-03-03T18:32:20.178Z,10.10
2023-03-03T18:34:54.054Z,10.00
2023-03-03T18:37:41.898Z,10.00
2023-03-03T18:40:50.245Z,9.90
2023-03-03T18:43:50.404Z,9.80
2023-03-03T18:46:47.996Z,9.80
2023-03-03T18:49:17.667Z,9.70
2023-03-03T18:51:52.723Z,9.70
2023-03-03T18:54:31.020Z,9.60
2023-03-03T18:57:19.282Z,9.50
2023-03-03T18:59:58.404Z,9.50
2023-03-03T19:02:35.920Z,9.40
2023-03-03T19:05:24.461Z,9.40
2023-03-03T19:07:59.671Z,9.30
2023-03-03T19:10:51.424Z,9.30
2023-03-03T19:13:47.677Z,9.20
2023-03-03T19:16:37.818Z,9.20
2023-03-03T19:19:17.645Z,9.20
2023-03-03T19:21:51.233Z,9.10
2023-03-03T19:24:35.038Z,9.10
2023-03-03T19:27:35.030Z,9.00
2023-03-03T19:30:38.969Z,9.00
2023-03-03T19:33:23.570Z,9.00
2023-03-03T19:36:21.805Z,8.90
2023-03-03T19:39:03.545Z,8.90
2023-03-03T19:41:56.293Z,8.90
2023-03-03T19:44:45.677Z,8.80
2023-03-03T19:47:25.559Z,8.80
2023-03-03T19:50:07.785Z,8.80
2023-03-03T19:52:41.741Z,8.70
2023-03-03T19:55:23.251Z,8.70
2023-03-03T19:58:04.015Z,8.70
2023-03-03T20:00:39.474Z,8.60
2023-03-03T20:03:45.864Z,8.60
2023-03-03T20:06:27.260Z,8.60
2023-03-03T20:09:06.339Z,8.60
2023-03-03T20:11:52.351Z,8.50
2023-03-03T20:14:40.182Z,8.50
2023-03-03T20:17:41.458Z,8.40
2023-03-03T20:20:34.074Z,8.40
2023-03-03T20:23:12.274Z,8.30
2023-03-03T20:25:46.103Z,8.30
2023-03-03T20:28:39.612Z,8.20
2023-03-03T20:31:16.429Z,8.20
2023-03-03T20:33:53.472Z,8.10
2023-03-03T20:36:30.475Z,8.10
2023-03-03T20:39:07.864Z,8.00
2023-03-03T20:41:55.146Z,8.00
2023-03-03T20:44:38.392Z,7.90
2023-03-03T20:47:15.187Z,7.90
2023-03-03T20:49:59.137Z,7.80
2023-03-03T20:52:37.910Z,7.80
2023-03-03T20:55:12.586Z,7.70
2023-03-03T20:57:50.409Z,7.70
2023-03-03T21:00:26.370Z,7.60
2023-03-03T21:03:02.673Z,7.60
2023-03-03T21:05:30.874Z,7.50
2023-03-03T21:08:02.340Z,7.50
2023-03-03T21:10:32.342Z,7.50
2023-03-03T21:13:29.832Z,7.40
2023-03-03T21:16:02.932Z,7.40
2023-03-03T21:18:33.002Z,7.40
2023-03-03T21:21:01.840Z,7.30
2023-03-03T21:23:30.000Z,7.30
2023-03-03T21:25:59.246Z,7.20
2023-03-03T21:28:30.745Z,7.20
2023-03-03T21:31:11.755Z,7.10
2023-03-03T21:33:49.837Z,7.10
2023-03-03T21:36:20.653Z,7.10
2023-03-03T21:38:49.696Z,7.00
2023-03-03T21:41:19.138Z,7.00
2023-03-03T21:43:49.324Z,6.90
2023-03-03T21:46:21.820Z,6.90
2023-03-03T21:48:52.861Z,6.90
2023-03-03T21:51:21.486Z,6.90
2023-03-03T21:53:50.072Z,6.80
2023-03-03T21:56:18.665Z,6.80
2023-03-03T21:58:46.730Z,6.70
2023-03-03T22:01:15.347Z,6.70
2023-03-03T22:03:45.564Z,6.70
2023-03-03T22:06:15.549Z,6.60
2023-03-03T22:08:44.091Z,6.60
2023-03-03T22:11:13.286Z,6.60
2023-03-03T22:13:43.244Z,6.50
2023-03-03T22:16:13.108Z,6.50
2023-03-03T22:18:41.244Z,6.50
2023-03-03T22:21:09.389Z,6.50
2023-03-03T22:23:39.317Z,6.50
2023-03-03T22:26:07.907Z,6.40
2023-03-03T22:28:36.125Z,6.40
2023-03-03T22:31:04.812Z,6.40
2023-03-03T22:33:32.872Z,6.30
2023-03-03T22:36:01.414Z,6.30
2023-03-03T22:38:29.469Z,6.30
2023-03-03T22:41:00.050Z,6.20
2023-03-03T22:43:30.236Z,6.20
2023-03-03T22:45:58.428Z,6.20
2023-03-03T22:48:27.891Z,6.10
2023-03-03T22:50:56.068Z,6.10
2023-03-03T22:53:25.412Z,6.10
2023-03-03T22:55:53.952Z,6.10
2023-03-03T22:58:25.970Z,6.00
2023-03-03T23:00:55.272Z,6.00
2023-03-03T23:03:23.487Z,6.00
2023-03-03T23:05:52.243Z,6.00
2023-03-03T23:08:21.254Z,6.00
2023-03-03T23:10:49.855Z,5.90
2023-03-03T23:13:19.338Z,5.90
2023-03-03T23:15:48.856Z,5.80
2023-03-03T23:18:17.556Z,5.80
2023-03-03T23:20:46.165Z,5.80
2023-03-03T23:23:14.833Z,5.80
2023-03-03T23:25:43.389Z,5.70
2023-03-03T23:28:12.294Z,5.70
2023-03-03T23:30:40.856Z,5.70
2023-03-03T23:33:10.338Z,5.70
2023-03-03T23:35:38.926Z,5.60
2023-03-03T23:38:07.048Z,5.60
2023-03-03T23:40:35.637Z,5.60
2023-03-03T23:43:03.860Z,5.60
2023-03-03T23:45:31.928Z,5.60
2023-03-03T23:48:00.533Z,5.60
2023-03-03T23:50:32.176Z,5.60
2023-03-03T23:53:00.260Z,5.50
2023-03-03T23:55:28.873Z,5.50
2023-03-03T23:57:57.094Z,5.50
